• Join FlightAware (Why Join?)
  • Login
  • US Flag 
07:35AM EDT


 

Airport Tracker/Info


-or-


 

Live Flight TrackerFlight Track Log ✈ FLG4262 ✈ 06-Apr-2014 ✈ KDTW - KBGM

Flight Track Log - Related Links

Times and Time Zones

All times are in EDT time to prevent confusion due to time zone crossing. See the FLG4262 flight status page for this flight to view local times or setup timezone preferences in your user account.

Time Position Orientation Groundspeed Altitude Reporting Facility
EDT Latitude Longitude Course Direction KTS MPH feet Rate Location/Type
04:13PM 42.1975 -83.3686 178° South 159 183 1,600  Level Cleveland Center
04:14PM 42.1369 -83.3658 178° South 206 237 4,300 2,280 Climbing Cleveland Center
04:15PM 42.0839 -83.3317 154° Southeast 254 292 6,300 2,280 Climbing Cleveland Center
04:16PM 42.0339 -83.2531 131° Southeast 270 311 8,900 1,740 Climbing Cleveland Center
04:17PM 42.0481 -83.1606 78° East 298 343 10,000 1,200 Climbing Cleveland Center
04:18PM 42.1253 -83.0928 33° Northeast 329 379 11,400 1,320 Climbing Cleveland Center
04:19PM 42.1975 -83.0114 40° Northeast 355 409 12,800 1,800 Climbing Cleveland Center
04:20PM 42.2431 -82.8639 67° East 357 411 15,200 1,980 Climbing Cleveland Center
04:21PM 42.2831 -82.7356 67° East 368 423 17,000 1,500 Climbing Cleveland Center
04:22PM 42.3225 -82.6011 68° East 381 438 18,300 1,080 Climbing Cleveland Center
04:23PM 42.3647 -82.4611 68° East 400 460 19,300 960 Climbing Cleveland Center
04:24PM 42.3619 -82.3003 91° East 426 490 20,300 1,020 Climbing Cleveland Center
04:25PM 42.3544 -82.1119 93° East 436 502 21,500 1,020 Climbing Cleveland Center
04:26PM 42.3478 -81.9419 93° East 445 512 22,500 960 Climbing Cleveland Center
04:27PM 42.3403 -81.7681 93° East 454 522 23,500 960 Climbing Cleveland Center
04:28PM 42.3319 -81.5958 94° East 454 522 24,600 960 Climbing Cleveland Center
04:29PM 42.3236 -81.4197 94° East 458 527 25,600 960 Climbing Cleveland Center
04:30PM 42.3147 -81.2439 94° East 461 531 26,600 660 Climbing Cleveland Center
04:31PM 42.3047 -81.0378 94° East 465 535 27,000 180 Climbing Cleveland Center
04:32PM 42.3033 -80.8500 91° East 489 563 27,000  Level Cleveland Center
04:33PM 42.3047 -80.6569 89° East 501 577 27,000  Level Cleveland Center
04:34PM 42.3042 -80.4619 90° East 508 585 27,000  Level Cleveland Center
04:35PM 42.3033 -80.2650 90° East 518 596 27,000  Level Cleveland Center
04:36PM 42.3022 -80.0664 90° East 523 602 27,000  Level Cleveland Center
04:37PM 42.3008 -79.8378 90° East 524 603 27,000  Level Cleveland Center
04:38PM 42.2983 -79.6411 91° East 526 605 27,000  Level Cleveland Center
04:40PM 42.2956 -79.4431 91° East 527 606 27,000  Level Cleveland Center
04:41PM 42.2931 -79.2467 91° East 527 606 27,000  Level Cleveland Center
04:42PM 42.2908 -79.0478 91° East 529 609 27,000  Level Cleveland Center
04:43PM 42.2883 -78.8342 91° East 532 612 27,000  Level Cleveland Center
04:44PM 42.2847 -78.6378 91° East 530 610 27,000  Level Cleveland Center
04:45PM 42.2817 -78.4394 91° East 530 610 27,000  Level Cleveland Center
04:46PM 42.2767 -78.2000 92° East 532 612 27,000  Level Cleveland Center
04:47PM 42.2725 -78.0039 92° East 531 611 27,000 -1,080 Level Cleveland Center
04:48PM 42.2672 -77.8075 92° East 531 611 24,800 -2,160 Descending Cleveland Center
04:49PM 42.2628 -77.6142 92° East 525 604 22,600 -2,340 Descending Cleveland Center
04:50PM 42.2561 -77.3928 92° East 504 580 20,000 -2,340 Descending Cleveland Center
04:51PM 42.2519 -77.2283 92° East 459 528 17,800 -1,500 Descending Cleveland Center
04:52PM 42.2467 -77.0717 93° East 427 491 17,000 -1,380 Descending Cleveland Center
04:53PM 42.2419 -76.9272 92° East 396 456 15,000 -1,860 Descending Cleveland Center
04:54PM 42.2378 -76.7914 92° East 369 425 13,200 -1,800 Descending Cleveland Center
04:55PM 42.2317 -76.6428 93° East 335 386 11,400 -1,620 Descending Cleveland Center
04:56PM 42.2278 -76.5292 93° East 309 356 9,900 -1,200 Descending Cleveland Center
04:57PM 42.2250 -76.4214 92° East 291 335 9,000 -600 Descending Cleveland Center
04:58PM 42.2200 -76.3153 94° East 285 328 8,700 -1,380 Descending Cleveland Center
04:59PM 42.2164 -76.2156 93° East 273 314 6,200 -2,040 Descending Cleveland Center
05:00PM 42.2125 -76.1253 93° East 250 288 4,600 -1,080 Descending Cleveland Center
05:01PM 42.1831 -76.0519 118° Southeast 241 277 4,000 -300 Descending Cleveland Center
05:02PM 42.1353 -76.0042 143° Southeast 229 264 4,000 -480 Level Cleveland Center
05:04PM 42.1686 -75.9433 54° Northeast 181 208 2,600 -600 Descending New York Center
05:05PM 42.2044 -75.9683 333° Northwest 173 199 2,200 -420 Descending New York Center